Time;durP1;ratioP1;P1;durP2;ratioP2;P2;SDS_P1;SDS_P2;PMS_P1;PMS_P2;Temp;Humidity;BMP_temperature;BMP_pressure;BME280_temperature;BME280_humidity;BME280_pressure;Samples;Min_cycle;Max_cycle;Signal;HPM_P1;HPM_P2
2021/03/20 00:01:08;;;;;;;2.47;1.30;;;2.30;99.90;;;;;;4983636;28;20893;-86
2021/03/20 00:03:34;;;;;;;2.07;0.90;;;2.30;99.90;;;;;;5002615;28;20187;-85
2021/03/20 00:06:00;;;;;;;1.67;1.57;;;2.40;99.90;;;;;;4985265;28;20953;-85
2021/03/20 00:08:26;;;;;;;0.87;0.87;;;2.40;99.90;;;;;;4951738;28;20239;-85
2021/03/20 00:10:53;;;;;;;1.80;0.83;;;2.50;99.90;;;;;;4961528;28;20232;-86
2021/03/20 00:13:21;;;;;;;0.87;0.83;;;2.50;99.90;;;;;;4965919;28;20849;-86
2021/03/20 00:15:47;;;;;;;1.10;1.10;;;2.40;99.90;;;;;;4968208;28;20200;-86
2021/03/20 00:18:14;;;;;;;1.03;1.00;;;2.50;99.90;;;;;;4968472;28;20307;-85
2021/03/20 00:20:42;;;;;;;1.23;1.17;;;2.60;99.90;;;;;;4966706;28;20224;-85
2021/03/20 00:23:09;;;;;;;1.37;0.93;;;2.50;99.90;;;;;;4985924;28;20247;-85
2021/03/20 00:25:35;;;;;;;0.80;0.80;;;2.50;99.90;;;;;;4969553;28;20221;-85
2021/03/20 00:28:06;;;;;;;0.80;0.80;;;2.40;99.90;;;;;;4968950;28;20266;-85
2021/03/20 00:30:32;;;;;;;1.23;1.17;;;2.40;99.90;;;;;;4988747;28;20184;-85
2021/03/20 00:32:58;;;;;;;1.03;0.97;;;2.40;99.90;;;;;;4953541;28;20733;-85
2021/03/20 00:35:25;;;;;;;0.43;0.43;;;2.40;99.90;;;;;;4971903;28;20234;-85
2021/03/20 00:37:52;;;;;;;1.03;1.03;;;2.40;99.90;;;;;;4966578;28;20228;-85
2021/03/20 00:40:23;;;;;;;1.23;1.00;;;2.40;99.90;;;;;;4967003;28;20224;-86
2021/03/20 00:42:49;;;;;;;0.90;0.90;;;2.40;99.90;;;;;;4971645;28;20215;-86
2021/03/20 00:45:16;;;;;;;1.37;1.23;;;2.40;99.90;;;;;;4972311;28;20212;-85
2021/03/20 00:47:42;;;;;;;1.40;1.23;;;2.40;99.90;;;;;;4970772;28;20231;-85
2021/03/20 00:50:10;;;;;;;0.60;0.60;;;2.40;99.90;;;;;;4970573;28;20224;-85
2021/03/20 00:52:36;;;;;;;0.80;0.80;;;2.40;99.90;;;;;;4987956;28;20230;-85
2021/03/20 00:55:02;;;;;;;0.80;0.80;;;2.40;99.90;;;;;;4953953;28;20212;-86
2021/03/20 00:57:28;;;;;;;0.77;0.70;;;2.40;99.90;;;;;;4955547;28;21116;-86
2021/03/20 00:59:54;;;;;;;0.97;0.97;;;2.30;99.90;;;;;;4970739;28;20614;-85
2021/03/20 01:02:20;;;;;;;0.60;0.57;;;2.30;99.90;;;;;;4954931;28;20254;-84
2021/03/20 01:04:45;;;;;;;1.13;1.00;;;2.20;99.90;;;;;;4953334;28;20220;-86
2021/03/20 01:07:11;;;;;;;1.07;0.83;;;2.20;99.90;;;;;;4971221;28;20219;-86
2021/03/20 01:09:37;;;;;;;0.83;0.83;;;2.20;99.90;;;;;;4970512;28;20284;-86
2021/03/20 01:12:04;;;;;;;4.67;1.60;;;2.10;99.90;;;;;;4980192;28;20219;-86
2021/03/20 01:14:30;;;;;;;0.70;0.70;;;2.00;99.90;;;;;;4980716;28;20227;-86
2021/03/20 01:16:56;;;;;;;3.80;1.30;;;2.00;99.90;;;;;;4997184;28;20215;-85
2021/03/20 01:19:22;;;;;;;1.77;1.67;;;2.00;99.90;;;;;;4983022;28;20231;-84
2021/03/20 01:21:49;;;;;;;1.73;1.33;;;2.00;99.90;;;;;;4985283;28;20188;-86
2021/03/20 01:24:15;;;;;;;1.80;1.60;;;2.00;99.90;;;;;;4970550;28;20195;-85
2021/03/20 01:26:41;;;;;;;1.27;1.17;;;2.00;99.90;;;;;;4968943;28;20216;-86
2021/03/20 01:29:07;;;;;;;1.00;0.80;;;2.00;99.90;;;;;;4968500;28;20246;-85
2021/03/20 01:31:33;;;;;;;1.37;1.20;;;1.90;99.90;;;;;;4985615;28;20215;-85
2021/03/20 01:33:59;;;;;;;1.57;1.47;;;1.90;99.90;;;;;;4985293;28;20211;-86
2021/03/20 01:36:25;;;;;;;4.17;1.63;;;1.90;99.90;;;;;;4960337;28;20216;-85
2021/03/20 01:38:50;;;;;;;1.17;1.17;;;1.80;99.90;;;;;;4983758;28;20634;-85
2021/03/20 01:41:19;;;;;;;3.20;1.20;;;1.90;99.90;;;;;;4968462;28;21078;-85
2021/03/20 01:43:46;;;;;;;0.60;0.60;;;1.90;99.90;;;;;;4995447;28;20220;-85
2021/03/20 01:46:42;;;;;;;2.97;1.83;;;1.90;99.90;;;;;;4984470;28;20958;-85
2021/03/20 01:49:17;;;;;;;1.73;1.63;;;1.80;99.90;;;;;;4978726;28;20235;-85
2021/03/20 01:51:49;;;;;;;1.77;1.67;;;1.80;99.90;;;;;;4978498;28;20184;-86
2021/03/20 01:54:15;;;;;;;3.73;2.70;;;1.80;99.90;;;;;;4987181;28;20200;-85
2021/03/20 01:56:45;;;;;;;1.77;1.67;;;1.80;99.90;;;;;;4983962;28;20274;-86
2021/03/20 01:59:14;;;;;;;3.63;2.63;;;1.70;99.90;;;;;;4968053;28;20638;-86
2021/03/20 02:01:40;;;;;;;1.17;1.07;;;1.70;99.90;;;;;;4984584;28;20227;-86
2021/03/20 02:04:06;;;;;;;0.73;0.73;;;1.70;99.90;;;;;;4968131;28;20452;-86
2021/03/20 02:06:32;;;;;;;0.97;0.97;;;1.70;99.90;;;;;;4986228;28;20199;-86
2021/03/20 02:09:00;;;;;;;0.90;0.90;;;1.60;99.90;;;;;;4983426;28;20231;-85
2021/03/20 02:11:31;;;;;;;0.70;0.70;;;1.70;99.90;;;;;;4993271;28;20258;-85
2021/03/20 02:14:05;;;;;;;0.83;0.63;;;1.70;99.90;;;;;;4985887;28;20223;-85
2021/03/20 02:16:57;;;;;;;0.60;0.60;;;1.70;99.90;;;;;;5002379;28;20676;-85
2021/03/20 02:20:00;;;;;;;1.23;1.17;;;1.70;99.90;;;;;;5003962;28;20231;-85
2021/03/20 02:22:46;;;;;;;0.63;0.63;;;1.70;99.90;;;;;;5000728;28;20250;-85
2021/03/20 02:25:17;;;;;;;2.60;2.03;;;1.70;99.90;;;;;;4985795;28;20223;-85
2021/03/20 02:28:12;;;;;;;1.17;1.17;;;1.70;99.90;;;;;;4996313;28;20200;-85
2021/03/20 02:30:50;;;;;;;1.00;1.00;;;1.70;99.90;;;;;;4996716;28;20278;-85
2021/03/20 02:33:41;;;;;;;1.17;1.17;;;1.60;99.90;;;;;;5006576;28;20199;-84
2021/03/20 02:36:31;;;;;;;0.97;0.90;;;1.70;99.90;;;;;;5001740;28;21013;-85
2021/03/20 02:39:16;;;;;;;0.90;0.90;;;1.60;99.90;;;;;;4999982;28;20277;-85
2021/03/20 02:42:02;;;;;;;0.80;0.80;;;1.60;99.90;;;;;;4984540;28;20230;-85
2021/03/20 02:44:40;;;;;;;0.80;0.80;;;1.50;99.90;;;;;;5002816;28;20226;-85
2021/03/20 02:47:09;;;;;;;0.97;0.97;;;1.50;99.90;;;;;;5003613;28;20211;-85
2021/03/20 02:49:52;;;;;;;1.83;1.70;;;1.50;99.90;;;;;;4986425;28;20219;-86
2021/03/20 02:52:21;;;;;;;1.43;1.37;;;1.50;99.90;;;;;;5003015;28;20295;-86
2021/03/20 02:55:03;;;;;;;1.17;1.17;;;1.50;99.90;;;;;;5002288;28;20194;-86
2021/03/20 02:57:39;;;;;;;0.67;0.67;;;1.60;99.90;;;;;;5005641;28;20215;-85
2021/03/20 03:00:23;;;;;;;0.60;0.60;;;1.60;99.90;;;;;;5004356;28;20691;-85
2021/03/20 03:02:51;;;;;;;2.33;1.67;;;1.70;99.90;;;;;;4986142;28;20227;-85
2021/03/20 03:05:21;;;;;;;1.37;1.37;;;1.70;99.90;;;;;;4986297;28;20219;-86
2021/03/20 03:08:00;;;;;;;1.97;1.73;;;1.70;99.90;;;;;;5001851;28;20676;-85
2021/03/20 03:10:34;;;;;;;1.83;1.73;;;1.70;99.90;;;;;;4986261;28;20747;-86
2021/03/20 03:13:09;;;;;;;1.90;1.57;;;1.80;99.90;;;;;;5003085;28;20257;-85
2021/03/20 03:15:42;;;;;;;2.20;1.17;;;1.90;99.90;;;;;;5003155;28;20183;-85
2021/03/20 03:18:16;;;;;;;0.60;0.60;;;1.90;99.90;;;;;;5002495;28;20310;-85
2021/03/20 03:20:45;;;;;;;0.87;0.87;;;2.00;99.90;;;;;;4993492;28;20221;-86
2021/03/20 03:23:23;;;;;;;0.50;0.50;;;2.00;99.90;;;;;;5002525;28;20257;-85
2021/03/20 03:26:02;;;;;;;1.13;1.03;;;2.00;99.90;;;;;;4995199;28;20718;-85
2021/03/20 03:28:29;;;;;;;1.50;1.40;;;2.10;99.90;;;;;;4984582;28;20233;-85
2021/03/20 03:30:57;;;;;;;5.87;2.73;;;2.00;99.90;;;;;;4968337;28;20234;-86
2021/03/20 03:33:29;;;;;;;1.40;1.30;;;2.10;99.90;;;;;;4986529;28;20217;-86
2021/03/20 03:36:06;;;;;;;1.57;1.47;;;2.10;99.90;;;;;;5002876;28;20302;-85
2021/03/20 03:38:51;;;;;;;1.47;1.40;;;2.10;99.90;;;;;;5003133;28;20654;-85
2021/03/20 03:41:31;;;;;;;1.13;1.13;;;2.10;99.90;;;;;;5000607;28;20223;-85
2021/03/20 03:43:58;;;;;;;1.57;1.47;;;2.10;99.90;;;;;;5002088;28;20207;-85
2021/03/20 03:46:29;;;;;;;1.10;1.10;;;2.10;99.90;;;;;;4985626;28;20686;-85
2021/03/20 03:48:58;;;;;;;2.13;1.20;;;2.10;99.90;;;;;;4984631;28;20219;-85
2021/03/20 03:51:25;;;;;;;0.97;0.90;;;2.10;99.90;;;;;;4986152;28;20706;-86
2021/03/20 03:53:52;;;;;;;2.63;0.90;;;2.20;99.90;;;;;;4984787;28;20218;-85
2021/03/20 03:56:36;;;;;;;1.67;1.40;;;2.20;99.90;;;;;;5003229;28;20218;-85
2021/03/20 03:59:02;;;;;;;0.67;0.67;;;2.20;99.90;;;;;;5000860;28;20227;-86
2021/03/20 04:02:02;;;;;;;1.20;1.10;;;2.20;99.90;;;;;;5002480;28;20226;-84
2021/03/20 04:04:46;;;;;;;1.53;1.23;;;2.20;99.90;;;;;;4983654;28;20312;-86
2021/03/20 04:07:31;;;;;;;1.33;1.23;;;2.20;99.90;;;;;;5002438;28;20233;-85
2021/03/20 04:10:02;;;;;;;0.60;0.60;;;2.20;99.90;;;;;;4983916;28;20222;-85
2021/03/20 04:12:44;;;;;;;2.00;1.23;;;2.10;99.90;;;;;;5002482;28;20227;-85
2021/03/20 04:15:31;;;;;;;1.47;1.37;;;2.00;99.90;;;;;;4984201;28;20767;-85
2021/03/20 04:18:05;;;;;;;1.97;1.87;;;2.00;99.90;;;;;;4984499;28;20231;-85
2021/03/20 04:20:38;;;;;;;2.50;2.30;;;2.00;99.90;;;;;;4984269;28;20688;-86
2021/03/20 04:23:11;;;;;;;0.50;0.50;;;2.00;99.90;;;;;;5001455;28;20239;-86
2021/03/20 04:25:42;;;;;;;0.90;0.90;;;1.90;99.90;;;;;;4985258;28;20341;-86
2021/03/20 04:28:18;;;;;;;3.60;1.70;;;1.90;99.90;;;;;;4984110;28;20215;-85
2021/03/20 04:30:51;;;;;;;1.47;0.80;;;1.90;99.90;;;;;;5003000;28;20182;-85
2021/03/20 04:33:30;;;;;;;1.90;1.27;;;1.90;99.90;;;;;;4985627;28;20191;-86
2021/03/20 04:36:07;;;;;;;1.43;1.23;;;1.90;99.90;;;;;;4984069;28;20696;-85
2021/03/20 04:38:33;;;;;;;2.67;0.97;;;1.90;99.90;;;;;;5002341;28;20377;-85
2021/03/20 04:41:06;;;;;;;1.07;1.07;;;1.80;99.90;;;;;;5001938;28;20207;-85
2021/03/20 04:43:33;;;;;;;1.37;1.27;;;1.80;99.90;;;;;;5001905;28;20298;-85
2021/03/20 04:46:04;;;;;;;1.40;1.30;;;1.80;99.90;;;;;;4966853;28;20301;-86
2021/03/20 04:48:34;;;;;;;0.67;0.67;;;1.80;99.90;;;;;;5003729;28;20191;-86
2021/03/20 04:51:21;;;;;;;0.83;0.83;;;1.70;99.90;;;;;;4979236;28;20212;-86
2021/03/20 04:53:52;;;;;;;1.63;1.53;;;1.80;99.90;;;;;;4996783;28;20219;-86
2021/03/20 04:56:20;;;;;;;1.80;1.70;;;1.80;99.90;;;;;;4979079;28;20274;-86
2021/03/20 04:59:01;;;;;;;2.73;2.53;;;1.80;99.90;;;;;;4979952;28;20231;-84
2021/03/20 05:01:35;;;;;;;4.03;1.77;;;1.80;99.90;;;;;;5000357;28;20261;-85
2021/03/20 05:04:08;;;;;;;1.37;1.30;;;1.80;99.90;;;;;;5002229;28;20243;-86
2021/03/20 05:06:35;;;;;;;1.53;1.43;;;1.70;99.90;;;;;;5000115;28;20686;-85
2021/03/20 05:09:05;;;;;;;2.87;1.50;;;1.70;99.90;;;;;;4961169;28;20191;-84
2021/03/20 05:11:37;;;;;;;1.80;1.70;;;1.70;99.90;;;;;;4979769;28;20322;-86
2021/03/20 05:14:42;;;;;;;1.60;1.50;;;1.60;99.90;;;;;;4978436;28;20219;-85
2021/03/20 05:17:12;;;;;;;2.13;2.03;;;1.60;99.90;;;;;;5001144;28;20214;-86
2021/03/20 05:19:38;;;;;;;1.50;1.40;;;1.60;99.90;;;;;;5001379;28;20226;-85
2021/03/20 05:22:04;;;;;;;1.17;1.07;;;1.50;99.90;;;;;;4967629;28;20214;-86
2021/03/20 05:24:34;;;;;;;1.83;1.73;;;1.50;99.90;;;;;;4962532;28;20560;-85
2021/03/20 05:27:03;;;;;;;2.03;1.80;;;1.50;99.90;;;;;;5001696;28;20297;-85
2021/03/20 05:29:30;;;;;;;0.97;0.97;;;1.50;99.90;;;;;;4983941;28;20231;-85
2021/03/20 05:31:57;;;;;;;1.00;1.00;;;1.40;99.90;;;;;;5001074;28;20211;-86
2021/03/20 05:34:29;;;;;;;2.90;1.30;;;1.40;99.90;;;;;;4982910;28;20220;-86
2021/03/20 05:36:55;;;;;;;1.37;1.33;;;1.40;99.90;;;;;;4999398;28;20227;-86
2021/03/20 05:39:22;;;;;;;1.80;1.70;;;1.30;99.90;;;;;;4967750;28;20302;-86
2021/03/20 05:42:08;;;;;;;2.07;1.97;;;1.30;99.90;;;;;;4983126;28;20219;-85
2021/03/20 05:44:52;;;;;;;1.77;1.67;;;1.40;99.90;;;;;;4991034;28;20231;-85
2021/03/20 05:47:21;;;;;;;2.90;2.17;;;1.30;99.90;;;;;;5000773;28;20728;-86
2021/03/20 05:50:08;;;;;;;1.27;1.07;;;1.30;99.90;;;;;;5001650;28;20234;-85
2021/03/20 05:53:02;;;;;;;1.13;1.03;;;1.40;99.90;;;;;;5001186;28;20210;-85
2021/03/20 05:55:49;;;;;;;2.67;2.47;;;1.40;99.90;;;;;;4993161;28;20320;-85
2021/03/20 05:58:33;;;;;;;0.90;0.90;;;1.50;99.90;;;;;;4998987;28;20344;-84
2021/03/20 06:01:04;;;;;;;1.47;1.37;;;1.50;99.90;;;;;;4999429;28;20222;-85
2021/03/20 06:03:33;;;;;;;2.23;2.03;;;1.50;99.90;;;;;;4984730;28;20592;-86
2021/03/20 06:06:25;;;;;;;2.20;2.03;;;1.50;99.90;;;;;;5000794;28;20273;-85
2021/03/20 06:09:06;;;;;;;0.77;0.70;;;1.60;99.90;;;;;;4973684;28;20362;-86
2021/03/20 06:11:37;;;;;;;1.30;1.20;;;1.80;99.90;;;;;;4985934;28;20246;-86
2021/03/20 06:14:41;;;;;;;1.33;1.23;;;1.90;99.90;;;;;;4996583;28;20215;-87
2021/03/20 06:17:27;;;;;;;2.53;1.77;;;1.80;99.90;;;;;;5004613;28;20227;-86
2021/03/20 06:20:15;;;;;;;3.67;1.23;;;1.80;99.90;;;;;;4979578;28;20337;-85
2021/03/20 06:23:02;;;;;;;1.03;0.90;;;1.80;99.90;;;;;;5004953;28;20786;-86
2021/03/20 06:25:41;;;;;;;1.33;1.33;;;1.70;99.90;;;;;;4987391;28;20299;-86
2021/03/20 06:28:10;;;;;;;1.80;1.67;;;1.80;99.90;;;;;;4986368;28;20215;-86
2021/03/20 06:30:41;;;;;;;1.43;1.33;;;1.80;99.90;;;;;;4995031;28;20601;-86
2021/03/20 06:33:28;;;;;;;1.83;1.27;;;1.80;99.90;;;;;;4987745;28;20180;-85
2021/03/20 06:36:08;;;;;;;3.07;1.47;;;1.90;99.90;;;;;;5004376;28;20234;-86
2021/03/20 06:38:45;;;;;;;3.23;3.03;;;2.20;99.90;;;;;;4986885;28;20231;-85
2021/03/20 06:41:30;;;;;;;1.63;1.53;;;2.50;99.90;;;;;;4982013;28;20207;-85
2021/03/20 06:44:00;;;;;;;3.27;2.97;;;2.70;99.90;;;;;;5001157;28;20215;-85
2021/03/20 06:46:30;;;;;;;2.73;2.53;;;3.30;99.90;;;;;;4984558;28;20223;-85
2021/03/20 06:48:57;;;;;;;2.57;2.47;;;4.10;99.90;;;;;;5002528;28;20230;-84
2021/03/20 06:51:23;;;;;;;2.37;2.17;;;4.20;99.90;;;;;;4995913;28;20311;-85
2021/03/20 06:54:02;;;;;;;3.50;3.17;;;5.00;99.90;;;;;;4968441;28;20211;-85
2021/03/20 06:56:35;;;;;;;2.13;2.00;;;5.70;99.90;;;;;;4985323;28;20219;-85
2021/03/20 06:59:09;;;;;;;2.97;1.70;;;7.80;99.90;;;;;;4984592;28;20237;-85
2021/03/20 07:02:00;;;;;;;3.00;1.93;;;9.50;99.90;;;;;;4984349;28;21315;-87
2021/03/20 07:04:39;;;;;;;2.97;2.03;;;11.20;99.90;;;;;;4985821;28;20247;-88
2021/03/20 07:07:44;;;;;;;2.90;1.90;;;12.10;99.90;;;;;;5002256;28;20241;-86
2021/03/20 07:10:35;;;;;;;2.80;1.47;;;12.60;99.90;;;;;;4985229;28;20227;-83
2021/03/20 07:13:22;;;;;;;1.90;1.80;;;13.80;99.90;;;;;;4984909;28;20223;-84
2021/03/20 07:16:12;;;;;;;2.67;1.60;;;14.50;99.90;;;;;;5000672;28;20329;-85
2021/03/20 07:18:43;;;;;;;11.17;2.93;;;15.10;99.90;;;;;;4997165;28;20269;-85
2021/03/20 07:21:24;;;;;;;2.67;2.47;;;15.20;99.90;;;;;;4998997;28;20184;-82
2021/03/20 07:23:56;;;;;;;3.37;2.67;;;15.50;99.90;;;;;;4993020;28;20330;-86
2021/03/20 07:26:22;;;;;;;2.20;2.00;;;14.70;99.90;;;;;;4981905;28;20310;-82
2021/03/20 07:28:52;;;;;;;2.27;1.80;;;14.70;99.90;;;;;;4967641;28;20781;-86
2021/03/20 07:31:19;;;;;;;3.23;1.93;;;15.20;99.90;;;;;;4984028;28;20219;-86
2021/03/20 07:33:49;;;;;;;2.10;1.90;;;16.10;99.90;;;;;;4978950;28;20195;-81
2021/03/20 07:36:35;;;;;;;6.37;2.00;;;16.60;99.90;;;;;;5001160;28;20291;-86
2021/03/20 07:39:19;;;;;;;2.43;1.37;;;15.60;99.90;;;;;;4998942;28;20231;-84
2021/03/20 07:41:54;;;;;;;2.20;2.00;;;15.20;99.90;;;;;;4993904;28;20817;-86
2021/03/20 07:44:26;;;;;;;2.63;2.00;;;13.80;99.90;;;;;;5000019;28;20226;-84
2021/03/20 07:46:53;;;;;;;1.70;1.43;;;14.20;99.90;;;;;;4984212;28;20226;-84
2021/03/20 07:49:24;;;;;;;2.50;1.97;;;15.30;99.90;;;;;;4958493;28;20240;-84
2021/03/20 07:52:02;;;;;;;1.87;1.60;;;15.60;99.90;;;;;;4997365;28;20194;-84
2021/03/20 07:54:35;;;;;;;3.67;2.70;;;15.50;99.90;;;;;;5001369;28;20186;-83
2021/03/20 07:57:09;;;;;;;1.67;1.57;;;14.90;99.90;;;;;;4980892;28;20229;-82
2021/03/20 07:59:48;;;;;;;2.00;1.67;;;15.30;99.90;;;;;;4998110;28;20234;-83
2021/03/20 08:02:26;;;;;;;1.67;1.57;;;16.20;99.90;;;;;;4997811;28;20216;-82
2021/03/20 08:05:26;;;;;;;2.30;1.40;;;15.00;99.90;;;;;;4990561;28;20215;-82
2021/03/20 08:07:53;;;;;;;1.80;1.70;;;15.90;99.90;;;;;;5000548;28;20215;-83
2021/03/20 08:10:21;;;;;;;2.20;1.60;;;16.20;99.90;;;;;;4980825;28;20254;-84
2021/03/20 08:13:04;;;;;;;2.37;1.20;;;16.70;99.90;;;;;;4979581;28;20231;-86
2021/03/20 08:15:39;;;;;;;1.87;1.23;;;15.90;99.90;;;;;;4999913;28;20195;-85
2021/03/20 08:18:37;;;;;;;1.37;1.20;;;15.60;99.90;;;;;;4998541;28;20222;-85
2021/03/20 08:21:14;;;;;;;1.47;1.37;;;15.20;99.90;;;;;;4998679;28;20309;-85
2021/03/20 08:24:01;;;;;;;4.97;2.10;;;15.30;99.90;;;;;;4998761;28;20223;-86
2021/03/20 08:26:45;;;;;;;2.13;1.37;;;15.10;99.90;;;;;;4990723;28;20273;-85
2021/03/20 08:29:45;;;;;;;1.63;1.40;;;16.30;99.90;;;;;;4983014;28;20222;-85
2021/03/20 08:32:38;;;;;;;2.03;1.33;;;17.20;99.90;;;;;;4992755;28;20575;-84
2021/03/20 08:35:34;;;;;;;1.67;1.40;;;18.00;99.90;;;;;;4998424;28;20696;-86
2021/03/20 08:38:18;;;;;;;1.60;1.50;;;18.00;99.90;;;;;;4977496;28;20241;-85
2021/03/20 08:41:25;;;;;;;3.43;1.37;;;17.50;99.90;;;;;;4992720;28;21008;-86
2021/03/20 08:44:02;;;;;;;1.87;1.67;;;16.90;99.90;;;;;;4896809;29;20245;-88
2021/03/20 08:46:52;;;;;;;1.70;1.60;;;17.00;99.90;;;;;;4992124;28;20218;-85
2021/03/20 08:49:36;;;;;;;3.20;2.57;;;17.50;99.90;;;;;;5000240;28;20323;-87
2021/03/20 08:52:10;;;;;;;4.10;1.83;;;17.10;99.90;;;;;;4998728;28;20229;-85
2021/03/20 08:54:54;;;;;;;4.70;1.90;;;17.00;99.90;;;;;;4982736;28;20342;-86
2021/03/20 08:57:45;;;;;;;6.70;2.17;;;15.40;99.90;;;;;;5002989;28;20191;-84
2021/03/20 09:00:19;;;;;;;1.90;1.60;;;13.60;99.90;;;;;;4983737;28;20215;-85
2021/03/20 09:02:46;;;;;;;3.23;1.73;;;12.10;99.90;;;;;;5001610;28;20230;-84
2021/03/20 09:05:23;;;;;;;2.20;1.97;;;11.40;99.90;;;;;;4991735;28;20215;-85
2021/03/20 09:07:54;;;;;;;3.83;2.17;;;10.90;99.90;;;;;;5001110;28;20227;-86
2021/03/20 09:10:39;;;;;;;2.30;1.40;;;10.40;99.90;;;;;;5000544;28;20230;-84
2021/03/20 09:13:29;;;;;;;2.50;1.60;;;9.60;99.90;;;;;;4998521;28;20821;-85
2021/03/20 09:16:00;;;;;;;1.77;1.63;;;9.30;99.90;;;;;;4999786;28;20255;-87
2021/03/20 09:18:27;;;;;;;6.57;1.80;;;8.90;99.90;;;;;;4984958;28;20275;-89
2021/03/20 09:20:58;;;;;;;3.20;2.27;;;8.40;99.90;;;;;;4999489;28;20227;-88
2021/03/20 09:23:35;;;;;;;2.47;1.97;;;8.20;99.90;;;;;;5001210;28;20756;-87
2021/03/20 09:26:04;;;;;;;1.60;1.03;;;8.00;99.90;;;;;;4979634;28;20242;-88
2021/03/20 09:28:56;;;;;;;11.00;3.07;;;8.00;99.90;;;;;;4987326;28;20297;-88
2021/03/20 09:31:28;;;;;;;13.43;2.13;;;8.00;99.90;;;;;;4975790;28;20226;-89
2021/03/20 09:33:55;;;;;;;1.30;0.97;;;8.10;99.90;;;;;;4995704;28;20280;-89
2021/03/20 09:36:21;;;;;;;1.63;1.53;;;8.10;99.90;;;;;;4964196;28;20261;-87
2021/03/20 09:38:50;;;;;;;2.23;1.17;;;8.20;99.90;;;;;;4999152;28;20612;-87
2021/03/20 09:41:18;;;;;;;0.83;0.83;;;8.10;99.90;;;;;;4987562;28;20216;-88
2021/03/20 09:44:02;;;;;;;1.40;1.00;;;7.90;99.90;;;;;;5005701;28;20230;-89
2021/03/20 09:46:40;;;;;;;3.30;1.20;;;8.00;99.90;;;;;;5002231;28;20219;-87
2021/03/20 09:49:06;;;;;;;2.27;0.80;;;7.80;99.90;;;;;;5003135;28;20225;-88
2021/03/20 09:51:51;;;;;;;1.27;1.10;;;7.80;99.90;;;;;;4989033;28;20217;-88
2021/03/20 09:54:29;;;;;;;1.43;0.93;;;7.80;99.90;;;;;;5003641;28;21421;-87
2021/03/20 09:57:22;;;;;;;0.87;0.83;;;7.70;99.90;;;;;;4995853;28;20269;-90
2021/03/20 09:59:50;;;;;;;0.70;0.70;;;7.90;99.90;;;;;;4986756;28;20239;-85
2021/03/20 10:02:15;;;;;;;0.60;0.60;;;7.90;99.90;;;;;;4986575;28;20246;-86
2021/03/20 10:05:19;;;;;;;0.83;0.67;;;7.90;99.90;;;;;;4987090;28;20342;-86
2021/03/20 10:08:18;;;;;;;0.60;0.60;;;8.00;99.90;;;;;;4995959;28;20238;-86
2021/03/20 10:10:50;;;;;;;0.70;0.70;;;8.20;99.90;;;;;;5004484;28;20223;-86
2021/03/20 10:13:38;;;;;;;0.80;0.80;;;8.00;99.90;;;;;;5004429;28;20245;-85
2021/03/20 10:16:05;;;;;;;2.00;0.50;;;7.80;99.90;;;;;;4986846;28;20223;-86
2021/03/20 10:18:49;;;;;;;1.27;1.00;;;7.60;99.90;;;;;;4988046;28;20219;-88
2021/03/20 10:21:24;;;;;;;10.07;1.10;;;7.60;99.90;;;;;;4987176;28;20223;-86
2021/03/20 10:24:05;;;;;;;1.13;1.13;;;7.80;99.90;;;;;;4986986;28;20205;-88
2021/03/20 10:26:39;;;;;;;0.97;0.60;;;7.70;99.90;;;;;;5002300;28;20267;-87
2021/03/20 10:29:08;;;;;;;1.10;1.00;;;7.80;99.90;;;;;;4986742;28;20225;-84
2021/03/20 10:31:42;;;;;;;0.43;0.43;;;7.50;99.90;;;;;;5004726;28;20223;-85
2021/03/20 10:34:20;;;;;;;1.30;1.10;;;7.40;99.90;;;;;;5003001;28;20274;-85
2021/03/20 10:37:08;;;;;;;0.67;0.67;;;7.40;99.90;;;;;;5002934;28;20172;-86
2021/03/20 10:39:37;;;;;;;1.50;0.97;;;7.60;99.90;;;;;;4986041;28;20553;-85
2021/03/20 10:42:23;;;;;;;0.70;0.70;;;7.60;99.90;;;;;;4996627;28;20188;-87
2021/03/20 10:45:04;;;;;;;0.60;0.60;;;7.50;99.90;;;;;;4985827;28;20257;-85
2021/03/20 10:47:31;;;;;;;1.30;1.20;;;7.70;99.90;;;;;;4981830;28;20249;-88
2021/03/20 10:50:04;;;;;;;0.87;0.70;;;7.60;99.90;;;;;;4982560;28;20902;-86
2021/03/20 10:52:37;;;;;;;5.83;0.70;;;7.60;99.90;;;;;;4991299;28;20223;-87
2021/03/20 10:55:35;;;;;;;0.40;0.40;;;7.60;99.90;;;;;;4981910;28;20314;-87
2021/03/20 10:58:01;;;;;;;0.63;0.53;;;7.40;99.90;;;;;;4983532;28;20226;-86
2021/03/20 11:00:44;;;;;;;1.27;0.70;;;7.40;99.90;;;;;;4982960;28;20273;-86
2021/03/20 11:03:13;;;;;;;0.70;0.70;;;7.20;99.90;;;;;;4998011;28;20226;-87
2021/03/20 11:05:41;;;;;;;1.07;0.97;;;7.10;99.90;;;;;;4980660;28;20231;-85
2021/03/20 11:08:19;;;;;;;1.00;1.00;;;7.10;99.90;;;;;;4981083;28;20763;-87
2021/03/20 11:10:47;;;;;;;0.60;0.60;;;7.10;99.90;;;;;;4998461;28;20231;-87
2021/03/20 11:13:16;;;;;;;2.20;0.97;;;7.40;99.90;;;;;;4964560;28;20227;-89
2021/03/20 11:15:43;;;;;;;0.50;0.50;;;7.50;99.90;;;;;;4982121;28;20203;-85
2021/03/20 11:18:26;;;;;;;0.60;0.60;;;7.60;99.90;;;;;;4983588;28;20698;-88
2021/03/20 11:20:52;;;;;;;5.13;1.20;;;7.50;99.90;;;;;;4984717;28;20215;-86
2021/03/20 11:23:36;;;;;;;1.00;0.90;;;7.50;99.90;;;;;;4968395;28;20758;-88
2021/03/20 11:26:33;;;;;;;0.87;0.87;;;7.60;99.90;;;;;;4983540;28;20211;-85
2021/03/20 11:29:02;;;;;;;0.57;0.57;;;7.60;99.90;;;;;;5000539;28;21093;-86
2021/03/20 11:31:33;;;;;;;1.70;1.27;;;7.50;99.90;;;;;;4984485;28;20215;-87
2021/03/20 11:33:59;;;;;;;1.83;1.03;;;7.40;99.90;;;;;;4985408;28;20249;-85
2021/03/20 11:36:28;;;;;;;2.77;1.23;;;7.30;99.90;;;;;;4968025;28;20219;-85
2021/03/20 11:38:55;;;;;;;0.40;0.40;;;7.10;99.90;;;;;;4984424;28;20227;-86
2021/03/20 11:41:24;;;;;;;0.60;0.60;;;7.10;99.90;;;;;;4968822;28;20313;-85
2021/03/20 11:44:02;;;;;;;0.80;0.80;;;7.10;99.90;;;;;;4984482;28;20230;-86
2021/03/20 11:46:46;;;;;;;1.50;1.03;;;7.10;99.90;;;;;;4996628;28;20241;-86
2021/03/20 11:49:32;;;;;;;1.47;1.47;;;7.00;99.90;;;;;;4985540;28;20272;-87
2021/03/20 11:51:58;;;;;;;1.13;0.73;;;7.10;99.90;;;;;;4995368;28;20227;-85
2021/03/20 11:54:32;;;;;;;0.90;0.87;;;7.00;99.90;;;;;;4970596;28;20205;-85
2021/03/20 11:57:22;;;;;;;1.60;0.90;;;6.90;99.90;;;;;;5003961;28;20225;-84
2021/03/20 11:59:49;;;;;;;0.97;0.97;;;7.00;99.90;;;;;;4984094;28;20812;-88
2021/03/20 12:02:23;;;;;;;0.60;0.60;;;7.10;99.90;;;;;;4979689;28;20223;-89
2021/03/20 12:05:07;;;;;;;0.30;0.30;;;7.10;99.90;;;;;;4998944;28;20222;-85
2021/03/20 12:07:33;;;;;;;0.73;0.73;;;7.00;99.90;;;;;;4985533;28;21088;-86
2021/03/20 12:10:17;;;;;;;0.53;0.53;;;7.10;99.90;;;;;;4984698;28;20234;-85
2021/03/20 12:12:49;;;;;;;0.60;0.60;;;7.10;99.90;;;;;;5001214;28;20219;-84
2021/03/20 12:15:27;;;;;;;0.40;0.40;;;7.10;99.90;;;;;;4985600;28;20191;-85
2021/03/20 12:17:54;;;;;;;0.30;0.30;;;7.10;99.90;;;;;;5000364;28;20235;-86
2021/03/20 12:20:25;;;;;;;2.07;0.80;;;7.10;99.90;;;;;;5001784;28;20247;-86
2021/03/20 12:22:54;;;;;;;0.50;0.50;;;7.00;99.90;;;;;;5001770;28;20219;-86
2021/03/20 12:25:28;;;;;;;0.60;0.60;;;7.10;99.90;;;;;;4982917;28;21017;-85
2021/03/20 12:28:25;;;;;;;0.63;0.63;;;7.10;99.90;;;;;;4982940;28;20227;-84
2021/03/20 12:31:13;;;;;;;0.50;0.50;;;7.00;99.90;;;;;;4983257;28;20210;-83
2021/03/20 12:34:04;;;;;;;0.57;0.57;;;7.10;99.90;;;;;;4998889;28;20286;-84
2021/03/20 12:36:35;;;;;;;0.60;0.60;;;7.10;99.90;;;;;;5001183;28;20218;-85
2021/03/20 12:39:03;;;;;;;2.07;1.03;;;7.20;99.90;;;;;;5000765;28;20223;-85
2021/03/20 12:41:33;;;;;;;0.60;0.60;;;7.40;99.90;;;;;;4983244;28;20219;-86
2021/03/20 12:44:09;;;;;;;0.93;0.70;;;7.40;99.90;;;;;;5000958;28;20288;-86
2021/03/20 12:46:38;;;;;;;0.43;0.43;;;7.40;99.90;;;;;;5000853;28;20254;-84
2021/03/20 12:49:04;;;;;;;1.27;1.27;;;7.30;99.90;;;;;;5001076;28;20731;-85
2021/03/20 12:51:30;;;;;;;0.40;0.40;;;7.30;99.90;;;;;;4994662;28;20221;-84
2021/03/20 12:53:56;;;;;;;2.70;1.10;;;7.20;99.90;;;;;;4977953;28;20273;-85
2021/03/20 12:56:22;;;;;;;0.83;0.60;;;7.30;99.90;;;;;;4983180;28;21341;-86
2021/03/20 12:58:48;;;;;;;0.30;0.30;;;7.50;99.90;;;;;;4984174;28;20231;-84
2021/03/20 13:01:14;;;;;;;2.60;1.47;;;7.40;99.90;;;;;;4983264;28;20733;-85
2021/03/20 13:03:39;;;;;;;1.33;0.83;;;7.50;99.90;;;;;;4968016;28;20206;-88
2021/03/20 13:06:06;;;;;;;1.43;0.87;;;7.50;99.90;;;;;;4969699;28;20191;-89
2021/03/20 13:08:38;;;;;;;0.53;0.53;;;7.50;99.90;;;;;;4984216;28;20219;-87
2021/03/20 13:11:06;;;;;;;0.80;0.80;;;7.50;99.90;;;;;;4951944;28;20954;-87
2021/03/20 13:13:32;;;;;;;0.27;0.27;;;7.50;99.90;;;;;;5001735;28;20222;-89
2021/03/20 13:15:58;;;;;;;0.47;0.47;;;7.50;99.90;;;;;;4985662;28;20222;-87
2021/03/20 13:18:24;;;;;;;1.70;0.60;;;7.60;99.90;;;;;;4989113;28;20235;-86
2021/03/20 13:20:50;;;;;;;1.73;0.80;;;7.70;99.90;;;;;;4971379;28;20303;-86
2021/03/20 13:23:18;;;;;;;0.20;0.20;;;7.70;99.90;;;;;;4971240;28;20215;-90
2021/03/20 13:25:44;;;;;;;0.23;0.23;;;7.60;99.90;;;;;;4971467;28;20242;-86
2021/03/20 13:28:12;;;;;;;1.00;0.77;;;7.60;99.90;;;;;;4987423;28;20237;-88
2021/03/20 13:30:42;;;;;;;0.63;0.63;;;7.80;99.90;;;;;;4962338;28;20650;-90
2021/03/20 13:33:09;;;;;;;0.30;0.30;;;7.90;99.90;;;;;;4989677;28;20183;-89
2021/03/20 13:35:38;;;;;;;0.30;0.30;;;7.90;99.90;;;;;;4988134;28;20266;-87